Time;durP1;ratioP1;P1;durP2;ratioP2;P2;SDS_P1;SDS_P2;PMS_P1;PMS_P2;Temp;Humidity;BMP_temperature;BMP_pressure;BME280_temperature;BME280_humidity;BME280_pressure;Samples;Min_cycle;Max_cycle;Signal;HPM_P1;HPM_P2
2021/11/08 00:00:38;;;;;;;23.43;16.00;;;;;;;7.65;89.10;100885.91;5049369;28;20405;-79
2021/11/08 00:03:10;;;;;;;21.23;15.45;;;;;;;7.63;88.66;100893.38;5035725;28;20866;-79
2021/11/08 00:05:39;;;;;;;24.52;15.45;;;;;;;7.63;89.58;100886.13;5046754;28;20877;-80
2021/11/08 00:08:05;;;;;;;26.83;14.63;;;;;;;7.64;89.53;100892.34;5041032;28;20401;-79
2021/11/08 00:10:33;;;;;;;20.80;14.25;;;;;;;7.67;89.24;100900.00;5051766;28;20414;-80
2021/11/08 00:13:02;;;;;;;21.70;13.70;;;;;;;7.68;89.31;100893.56;5036908;28;20397;-80
2021/11/08 00:15:36;;;;;;;21.35;14.00;;;;;;;7.65;89.20;100896.69;5034816;28;20441;-79
2021/11/08 00:18:39;;;;;;;21.52;15.38;;;;;;;7.66;89.08;100890.25;5041593;28;20874;-79
2021/11/08 00:20:54;;;;;;;24.38;15.75;;;;;;;7.69;88.58;100884.44;5049572;28;20925;-79
2021/11/08 00:23:20;;;;;;;23.58;16.80;;;;;;;7.71;89.21;100893.13;5051567;28;20483;-79
2021/11/08 00:25:46;;;;;;;27.60;17.65;;;;;;;7.73;88.83;100894.59;5042629;28;20952;-79
2021/11/08 00:28:14;;;;;;;27.20;16.52;;;;;;;7.75;89.06;100894.34;5044206;28;20405;-80
2021/11/08 00:30:41;;;;;;;25.05;18.15;;;;;;;7.74;89.25;100884.59;5046062;28;20399;-80
2021/11/08 00:33:10;;;;;;;23.88;17.02;;;;;;;7.74;88.67;100896.22;5051826;28;20488;-80
2021/11/08 00:35:37;;;;;;;21.27;16.95;;;;;;;7.73;89.11;100894.59;5041365;28;20403;-79
2021/11/08 00:38:02;;;;;;;22.83;18.10;;;;;;;7.67;88.99;100894.63;5026702;28;20397;-80
2021/11/08 00:40:28;;;;;;;26.53;17.87;;;;;;;7.70;89.56;100897.72;5034383;28;20415;-79
2021/11/08 00:42:53;;;;;;;24.47;18.60;;;;;;;7.66;88.71;100880.28;5051131;28;20492;-79
2021/11/08 00:45:20;;;;;;;26.85;19.17;;;;;;;7.60;88.94;100878.47;5043124;28;21008;-80
2021/11/08 00:47:45;;;;;;;30.92;20.35;;;;;;;7.54;88.71;100882.00;5036266;28;20398;-79
2021/11/08 00:50:12;;;;;;;31.30;20.63;;;;;;;7.51;88.32;100895.13;5052738;28;20400;-80
2021/11/08 00:52:37;;;;;;;29.23;20.70;;;;;;;7.45;88.91;100902.16;5054580;28;20390;-80
2021/11/08 00:55:03;;;;;;;27.97;19.60;;;;;;;7.40;89.06;100895.75;5046829;28;20754;-79
2021/11/08 00:57:33;;;;;;;27.98;19.58;;;;;;;7.35;88.75;100900.97;5047393;28;20405;-79
2021/11/08 00:59:59;;;;;;;25.58;18.92;;;;;;;7.32;88.83;100902.22;5042388;28;20395;-79
2021/11/08 01:02:26;;;;;;;30.50;19.67;;;;;;;7.28;88.74;100911.75;5057055;28;20423;-79
2021/11/08 01:04:53;;;;;;;24.77;18.35;;;;;;;7.24;88.96;100919.44;5050737;28;20911;-79
2021/11/08 01:07:18;;;;;;;30.20;19.38;;;;;;;7.22;89.01;100915.31;5043793;28;20756;-79
2021/11/08 01:09:45;;;;;;;28.48;18.50;;;;;;;7.21;88.60;100917.19;5057664;28;20420;-80
2021/11/08 01:12:11;;;;;;;27.75;19.13;;;;;;;7.21;88.85;100914.47;5054962;28;20393;-79
2021/11/08 01:14:36;;;;;;;28.27;18.73;;;;;;;7.18;89.00;100911.38;5044012;28;20451;-79
2021/11/08 01:17:04;;;;;;;31.97;19.73;;;;;;;7.13;88.79;100912.03;5045428;28;20905;-80
2021/11/08 01:19:30;;;;;;;32.78;19.77;;;;;;;7.13;88.70;100914.72;5042529;28;20489;-79
2021/11/08 01:22:14;;;;;;;33.87;18.97;;;;;;;7.09;89.74;100910.78;5055735;28;20407;-80
2021/11/08 01:24:40;;;;;;;28.05;20.48;;;;;;;7.14;89.61;100916.38;5048251;28;20415;-79
2021/11/08 01:27:06;;;;;;;30.07;18.97;;;;;;;7.16;90.12;100914.31;5049431;28;20450;-79
2021/11/08 01:29:32;;;;;;;28.92;19.67;;;;;;;7.24;90.15;100910.56;5054236;28;20397;-79
2021/11/08 01:32:04;;;;;;;30.77;19.08;;;;;;;7.29;90.20;100908.88;5053503;28;20402;-80
2021/11/08 01:34:30;;;;;;;29.02;18.63;;;;;;;7.33;90.02;100909.28;5045801;28;20453;-80
2021/11/08 01:36:58;;;;;;;32.47;18.40;;;;;;;7.32;90.08;100911.13;5049356;28;20397;-79
2021/11/08 01:39:31;;;;;;;25.25;17.17;;;;;;;7.35;90.14;100914.44;5040560;28;20461;-80
2021/11/08 01:41:57;;;;;;;33.65;19.33;;;;;;;7.30;89.94;100904.31;5041690;28;20389;-79
2021/11/08 01:44:23;;;;;;;27.52;17.42;;;;;;;7.32;89.86;100910.31;5050562;28;20399;-79
2021/11/08 01:46:48;;;;;;;25.17;17.23;;;;;;;7.33;89.83;100906.56;5049573;28;20413;-79
2021/11/08 01:49:13;;;;;;;27.87;16.27;;;;;;;7.36;89.79;100905.31;5057449;28;20400;-79
2021/11/08 01:51:39;;;;;;;28.17;16.40;;;;;;;7.39;89.83;100908.41;5041214;28;20386;-79
2021/11/08 01:54:06;;;;;;;26.70;16.58;;;;;;;7.38;90.41;100912.16;5048001;28;20403;-79
2021/11/08 01:56:32;;;;;;;26.02;16.88;;;;;;;7.38;89.74;100922.94;5048923;28;21115;-79
2021/11/08 01:58:57;;;;;;;28.98;16.40;;;;;;;7.38;89.77;100914.00;5057520;28;20385;-79
2021/11/08 02:01:23;;;;;;;21.67;15.00;;;;;;;7.38;89.67;100914.00;5037735;28;20917;-80
2021/11/08 02:03:49;;;;;;;24.80;15.23;;;;;;;7.43;89.91;100915.03;5047606;28;20384;-80
2021/11/08 02:06:14;;;;;;;23.87;14.67;;;;;;;7.46;89.40;100916.47;5040020;28;20416;-79
2021/11/08 02:08:40;;;;;;;28.93;14.97;;;;;;;7.49;89.34;100918.75;5047767;28;20432;-80
2021/11/08 02:11:06;;;;;;;25.13;14.07;;;;;;;7.50;89.14;100923.94;5052048;28;20852;-79
2021/11/08 02:13:32;;;;;;;28.07;14.13;;;;;;;7.53;88.75;100925.38;5039955;28;20390;-79
2021/11/08 02:15:57;;;;;;;22.37;13.77;;;;;;;7.42;89.00;100920.63;5043982;28;20399;-79
2021/11/08 02:18:24;;;;;;;24.10;14.17;;;;;;;7.33;88.70;100928.16;5039813;28;20426;-79
2021/11/08 02:20:50;;;;;;;23.80;13.57;;;;;;;7.23;89.47;100922.38;5041654;28;20431;-79
2021/11/08 02:23:18;;;;;;;21.27;13.77;;;;;;;7.18;89.68;100917.59;5048590;28;20413;-79
2021/11/08 02:25:44;;;;;;;20.17;13.50;;;;;;;7.16;89.02;100927.78;5042750;28;20415;-79
2021/11/08 02:28:12;;;;;;;21.17;13.90;;;;;;;7.07;89.03;100933.59;5049164;28;20479;-80
2021/11/08 02:30:38;;;;;;;24.92;14.70;;;;;;;7.01;88.57;100932.59;5036702;28;20399;-79
2021/11/08 02:33:07;;;;;;;29.50;15.45;;;;;;;6.91;88.68;100931.34;5053615;28;20385;-79
2021/11/08 02:35:33;;;;;;;25.27;14.67;;;;;;;6.89;88.69;100936.94;5043610;28;20815;-79
2021/11/08 02:37:59;;;;;;;25.17;14.27;;;;;;;6.87;88.90;100927.41;5046161;28;20423;-79
2021/11/08 02:40:27;;;;;;;24.67;15.30;;;;;;;6.86;89.11;100933.84;5036030;28;20406;-79
2021/11/08 02:43:00;;;;;;;25.33;14.65;;;;;;;6.81;89.04;100931.78;5038009;28;20386;-79
2021/11/08 02:45:29;;;;;;;29.33;15.10;;;;;;;6.77;89.01;100934.06;5052501;28;20445;-79
2021/11/08 02:47:55;;;;;;;27.63;15.70;;;;;;;6.72;89.01;100938.41;5039759;28;20862;-79
2021/11/08 02:50:26;;;;;;;27.50;14.73;;;;;;;6.69;89.23;100944.19;5049418;28;20409;-79
2021/11/08 02:52:53;;;;;;;31.95;15.85;;;;;;;6.66;89.21;100942.75;5045248;28;20756;-79
2021/11/08 02:55:23;;;;;;;29.13;15.02;;;;;;;6.64;89.13;100928.69;5042011;28;20393;-79
2021/11/08 02:57:50;;;;;;;27.30;14.85;;;;;;;6.62;88.72;100935.28;5047185;28;20420;-79
2021/11/08 03:00:16;;;;;;;24.90;16.05;;;;;;;6.58;89.29;100932.22;5050747;28;20459;-79
2021/11/08 03:02:42;;;;;;;27.77;15.30;;;;;;;6.55;89.43;100921.81;5038844;28;20401;-80
2021/11/08 03:05:12;;;;;;;29.00;15.95;;;;;;;6.58;89.21;100921.44;5043099;28;20407;-79
2021/11/08 03:07:38;;;;;;;27.98;15.82;;;;;;;6.58;89.01;100921.44;5046990;28;20394;-79
2021/11/08 03:10:11;;;;;;;33.47;16.00;;;;;;;6.59;88.92;100928.47;5041595;28;20422;-80
2021/11/08 03:12:38;;;;;;;28.05;16.00;;;;;;;6.58;88.75;100936.75;5048169;28;20395;-79
2021/11/08 03:15:14;;;;;;;24.77;15.10;;;;;;;6.56;88.70;100942.34;5043172;28;20949;-79
2021/11/08 03:17:45;;;;;;;24.98;15.43;;;;;;;6.56;88.04;100938.81;5049161;28;20500;-79
2021/11/08 03:20:18;;;;;;;26.70;15.55;;;;;;;6.56;87.82;100946.91;5036596;28;20400;-80
2021/11/08 03:22:57;;;;;;;27.45;14.90;;;;;;;6.50;88.34;100942.34;5042175;28;21015;-80
2021/11/08 03:27:57;;;;;;;26.93;15.23;;;;;;;6.42;88.01;100947.94;5050573;28;20444;-79
2021/11/08 03:30:27;;;;;;;29.63;14.98;;;;;;;6.38;88.20;100939.44;5045533;28;20450;-80
2021/11/08 03:32:55;;;;;;;27.17;16.08;;;;;;;6.40;88.61;100944.59;5040390;28;20406;-80
2021/11/08 03:35:24;;;;;;;24.48;14.63;;;;;;;6.42;89.15;100943.38;5036985;28;20402;-80
2021/11/08 03:37:51;;;;;;;33.55;15.52;;;;;;;6.46;88.89;100938.41;5052026;28;20377;-79
2021/11/08 03:40:21;;;;;;;26.75;15.65;;;;;;;6.50;89.12;100947.72;5043638;28;20398;-80
2021/11/08 03:42:48;;;;;;;24.77;15.15;;;;;;;6.51;88.67;100941.31;5042951;28;20382;-80
2021/11/08 03:45:15;;;;;;;28.73;14.80;;;;;;;6.52;88.57;100945.69;5048243;28;20405;-80
2021/11/08 03:47:41;;;;;;;24.73;14.23;;;;;;;6.46;88.45;100954.56;5047200;28;20549;-80
2021/11/08 03:50:08;;;;;;;33.30;19.10;;;;;;;6.40;88.76;100944.59;5039714;28;20385;-80
2021/11/08 03:52:34;;;;;;;47.92;29.45;;;;;;;6.33;88.38;100946.47;5043664;28;20433;-79
2021/11/08 03:55:00;;;;;;;43.85;30.95;;;;;;;6.28;88.09;100941.72;5047300;28;20397;-80
2021/11/08 03:57:27;;;;;;;26.73;15.77;;;;;;;6.25;88.64;100948.34;5049146;28;20884;-80
2021/11/08 03:59:52;;;;;;;27.95;14.80;;;;;;;6.28;88.14;100957.88;5038864;28;20389;-80
2021/11/08 04:02:18;;;;;;;31.53;14.73;;;;;;;6.27;88.42;100948.13;5044315;28;20727;-80
2021/11/08 04:04:43;;;;;;;25.97;14.03;;;;;;;6.26;87.95;100957.22;5046478;28;20834;-80
2021/11/08 04:07:08;;;;;;;24.95;13.35;;;;;;;6.22;87.83;100950.63;5051765;28;20946;-80
2021/11/08 04:09:34;;;;;;;25.83;13.33;;;;;;;6.18;88.00;100960.13;5045157;28;20469;-79
2021/11/08 04:12:00;;;;;;;21.38;13.25;;;;;;;6.15;87.81;100960.53;5041436;28;20428;-79
2021/11/08 04:14:26;;;;;;;28.52;14.02;;;;;;;6.08;88.07;100952.44;5051787;28;20425;-79
2021/11/08 04:16:53;;;;;;;22.20;14.97;;;;;;;6.05;87.39;100955.53;5039251;28;20520;-79
2021/11/08 04:19:19;;;;;;;31.05;15.70;;;;;;;6.05;87.50;100958.22;5036211;28;20403;-80
2021/11/08 04:21:45;;;;;;;22.98;14.30;;;;;;;6.02;87.33;100961.34;5036773;28;20481;-80
2021/11/08 04:24:10;;;;;;;20.63;13.25;;;;;;;6.01;87.37;100980.34;5042364;28;20399;-79
2021/11/08 04:26:37;;;;;;;22.83;12.90;;;;;;;5.98;87.14;100964.63;5051297;28;20418;-79
2021/11/08 04:29:04;;;;;;;30.10;14.35;;;;;;;5.96;87.30;100969.38;5035327;28;20397;-79
2021/11/08 04:31:33;;;;;;;24.85;13.57;;;;;;;5.93;87.39;100967.91;5041370;28;20915;-79
2021/11/08 04:34:05;;;;;;;27.80;15.05;;;;;;;5.93;87.58;100964.41;5043704;28;20880;-80
2021/11/08 04:52:20;;;;;;;23.90;14.10;;;;;;;5.84;86.29;100984.38;5046733;28;20449;-79
2021/11/08 04:55:06;;;;;;;23.67;12.32;;;;;;;5.65;87.19;100976.06;5036708;28;20752;-80
2021/11/08 04:57:55;;;;;;;19.48;12.55;;;;;;;5.52;87.92;100984.06;5039295;28;20402;-79
2021/11/08 05:25:04;;;;;;;23.05;13.57;;;;;;;5.46;87.96;100981.34;5041537;28;20918;-80
2021/11/08 05:30:14;;;;;;;20.13;12.90;;;;;;;5.37;87.49;100990.59;5047410;28;20535;-79
2021/11/08 05:32:43;;;;;;;26.60;13.27;;;;;;;5.34;87.54;100986.44;5040453;28;20405;-80
2021/11/08 05:35:12;;;;;;;29.35;13.85;;;;;;;5.35;87.66;100985.41;5047020;28;20386;-79
2021/11/08 05:37:41;;;;;;;29.60;13.35;;;;;;;5.31;87.61;100986.00;5041470;28;20459;-79
2021/11/08 05:40:12;;;;;;;23.40;12.68;;;;;;;5.32;87.76;100996.56;5039401;28;20438;-80
2021/11/08 05:42:37;;;;;;;22.50;12.80;;;;;;;5.30;87.88;101000.47;5041214;28;20409;-80
2021/11/08 05:45:05;;;;;;;25.73;14.73;;;;;;;5.41;87.02;100999.91;5048687;28;20415;-80
2021/11/08 05:47:32;;;;;;;30.30;18.30;;;;;;;5.46;87.17;101003.69;5048580;28;20451;-79
2021/11/08 05:49:57;;;;;;;31.13;18.88;;;;;;;5.50;86.69;100998.75;5048558;28;20401;-80
2021/11/08 05:52:23;;;;;;;32.37;19.80;;;;;;;5.50;86.46;100998.75;5045150;28;20454;-81
2021/11/08 05:54:48;;;;;;;26.08;15.80;;;;;;;5.50;86.53;101001.44;5042854;28;20402;-81
2021/11/08 05:57:41;;;;;;;29.17;15.73;;;;;;;5.47;86.70;101001.78;5045631;28;20913;-80
2021/11/08 06:49:29;;;;;;;31.77;17.75;;;;;;;5.16;86.24;101058.66;5053235;28;20388;-80
2021/11/08 06:51:56;;;;;;;33.13;16.00;;;;;;;5.19;86.49;101045.69;5038136;28;20457;-80
2021/11/08 06:54:27;;;;;;;29.77;18.10;;;;;;;5.20;86.51;101050.00;5051709;28;20833;-81
2021/11/08 06:56:56;;;;;;;32.03;14.43;;;;;;;5.19;86.19;101047.53;5048059;28;20428;-80
2021/11/08 06:59:25;;;;;;;24.13;12.88;;;;;;;5.23;85.90;101054.19;5042156;28;20402;-81
2021/11/08 07:01:54;;;;;;;25.80;14.18;;;;;;;5.26;85.79;101056.47;5048109;28;20516;-80
2021/11/08 07:04:19;;;;;;;23.33;13.67;;;;;;;5.26;86.04;101055.63;5049535;28;20498;-81
2021/11/08 07:06:46;;;;;;;23.00;13.00;;;;;;;5.29;85.66;101058.75;5038404;28;20455;-80
2021/11/08 07:09:12;;;;;;;21.50;12.38;;;;;;;5.34;85.51;101064.38;5041045;28;20512;-79
2021/11/08 07:11:38;;;;;;;19.23;11.77;;;;;;;5.40;85.73;101068.16;5047867;28;20423;-80
2021/11/08 07:14:06;;;;;;;18.92;12.00;;;;;;;5.44;85.73;101062.16;5035438;28;20403;-81
2021/11/08 07:16:31;;;;;;;19.77;11.40;;;;;;;5.44;85.41;101059.47;5043106;28;20886;-80
2021/11/08 07:18:57;;;;;;;18.97;11.83;;;;;;;5.44;85.23;101062.16;5049210;28;20455;-80
2021/11/08 07:21:22;;;;;;;22.63;12.33;;;;;;;5.44;85.39;101064.00;5047153;28;20523;-80
2021/11/08 07:23:47;;;;;;;19.63;11.38;;;;;;;5.48;85.19;101059.91;5049064;28;20907;-80
2021/11/08 07:26:13;;;;;;;22.20;11.13;;;;;;;5.48;85.49;101067.97;5046992;28;20411;-80
2021/11/08 07:28:40;;;;;;;41.90;23.00;;;;;;;5.54;85.16;101075.25;5040823;28;20504;-79
2021/11/08 07:31:06;;;;;;;32.75;19.77;;;;;;;5.56;85.45;101081.28;5039862;28;20395;-80
2021/11/08 07:33:31;;;;;;;43.33;24.33;;;;;;;5.62;85.01;101084.00;5049427;28;20400;-80
2021/11/08 07:35:58;;;;;;;59.80;34.03;;;;;;;5.69;85.10;101087.56;5047963;28;20741;-80
2021/11/08 07:38:24;;;;;;;78.10;45.30;;;;;;;5.74;85.21;101084.28;5047229;28;20410;-82
2021/11/08 07:40:50;;;;;;;63.67;40.07;;;;;;;5.81;85.36;101084.31;5040086;28;20418;-80
2021/11/08 07:43:15;;;;;;;33.22;20.95;;;;;;;5.94;85.42;101089.78;5048200;28;20746;-80
2021/11/08 07:45:41;;;;;;;15.07;10.23;;;;;;;5.97;85.13;101087.53;5047552;28;20413;-80
2021/11/08 07:48:07;;;;;;;10.50;7.23;;;;;;;6.04;84.52;101090.25;5038815;28;21169;-80
2021/11/08 07:50:33;;;;;;;6.90;6.03;;;;;;;6.05;84.36;101089.25;5050735;28;21029;-80
2021/11/08 07:52:58;;;;;;;8.20;5.75;;;;;;;6.08;83.42;101096.91;5050499;28;20484;-80
2021/11/08 07:55:24;;;;;;;11.03;6.23;;;;;;;5.98;82.88;101099.13;5035454;28;20747;-78
2021/11/08 07:57:49;;;;;;;9.13;6.57;;;;;;;6.03;83.33;101105.56;5050918;28;20405;-79
2021/11/08 08:00:14;;;;;;;9.37;6.30;;;;;;;6.20;83.00;101106.06;5049665;28;20394;-80
2021/11/08 08:02:41;;;;;;;9.23;7.00;;;;;;;6.30;83.17;101098.44;5049235;28;20787;-79
2021/11/08 08:05:12;;;;;;;8.05;6.38;;;;;;;6.34;83.01;101102.41;5034634;28;20393;-79
2021/11/08 08:07:41;;;;;;;8.43;6.75;;;;;;;6.37;82.45;101098.47;5038797;28;20409;-79
2021/11/08 08:10:07;;;;;;;12.65;7.78;;;;;;;6.45;82.71;101107.22;5049696;28;20417;-79
2021/11/08 08:12:33;;;;;;;15.07;10.95;;;;;;;6.44;82.24;101102.84;5046851;28;20459;-79
2021/11/08 08:14:59;;;;;;;22.17;17.38;;;;;;;6.49;82.77;101110.31;5045606;28;20473;-79
2021/11/08 08:17:24;;;;;;;23.30;14.87;;;;;;;6.56;82.75;101105.78;5045009;28;20407;-79
2021/11/08 08:19:49;;;;;;;20.50;14.77;;;;;;;6.71;82.04;101104.59;5041653;28;20413;-80
2021/11/08 08:22:15;;;;;;;16.50;12.93;;;;;;;6.84;81.80;101111.88;5037626;28;20866;-79
2021/11/08 08:24:40;;;;;;;14.50;10.95;;;;;;;6.98;81.59;101096.56;5034082;28;20906;-79
2021/11/08 08:27:06;;;;;;;19.87;12.40;;;;;;;7.08;81.68;101091.59;5046758;28;20426;-79
2021/11/08 08:29:33;;;;;;;16.55;11.25;;;;;;;7.26;81.70;101098.00;5033273;28;20415;-79
2021/11/08 08:31:58;;;;;;;17.50;11.88;;;;;;;7.50;80.38;101104.63;5046449;28;20742;-79
2021/11/08 08:34:25;;;;;;;15.93;10.80;;;;;;;7.68;80.21;101102.09;5047755;28;20396;-80
2021/11/08 08:36:53;;;;;;;12.15;10.55;;;;;;;7.80;80.17;101099.59;5036022;28;20480;-80
2021/11/08 08:39:20;;;;;;;10.43;9.35;;;;;;;7.86;79.86;101104.16;5049776;28;20445;-80
2021/11/08 08:41:47;;;;;;;11.02;9.05;;;;;;;7.84;79.48;101111.59;5039257;28;20395;-80
2021/11/08 08:44:13;;;;;;;11.32;9.20;;;;;;;7.81;79.93;101120.13;5040057;28;20945;-79
2021/11/08 08:46:41;;;;;;;12.45;9.93;;;;;;;7.87;80.66;101108.50;5051064;28;20918;-79
2021/11/08 08:49:07;;;;;;;24.08;16.05;;;;;;;7.99;79.32;101104.13;5036131;28;20439;-79
2021/11/08 08:51:32;;;;;;;28.60;15.40;;;;;;;7.95;79.86;101097.47;5038578;28;20438;-80
2021/11/08 08:53:58;;;;;;;16.90;9.52;;;;;;;8.09;80.26;101099.09;5039986;28;20486;-81
2021/11/08 08:56:26;;;;;;;16.75;10.95;;;;;;;8.49;79.43;101088.16;5047579;28;20402;-79
2021/11/08 08:58:53;;;;;;;15.30;11.05;;;;;;;8.79;78.53;101092.75;5036626;28;20455;-80
2021/11/08 09:01:19;;;;;;;15.43;10.27;;;;;;;9.26;76.98;101088.66;5046479;28;20393;-81
2021/11/08 09:03:45;;;;;;;11.73;8.18;;;;;;;9.75;74.63;101101.31;5045739;28;20404;-81
2021/11/08 09:06:10;;;;;;;9.17;6.70;;;;;;;9.78;74.24;101105.47;5050939;28;20409;-81
2021/11/08 09:08:38;;;;;;;12.53;7.33;;;;;;;9.86;74.93;101110.56;5042327;28;20391;-81
2021/11/08 09:11:03;;;;;;;12.65;7.28;;;;;;;10.68;72.28;101107.31;5044002;28;20462;-80
2021/11/08 09:13:28;;;;;;;18.13;8.43;;;;;;;11.72;68.66;101105.88;5051941;28;20536;-80
2021/11/08 09:15:54;;;;;;;11.70;7.30;;;;;;;11.52;67.44;101108.91;5053335;28;20456;-80
2021/11/08 09:18:20;;;;;;;10.30;5.88;;;;;;;11.16;69.43;101118.06;5052498;28;20416;-80
2021/11/08 09:20:45;;;;;;;9.73;5.65;;;;;;;11.63;68.18;101112.69;5055084;28;20390;-80
2021/11/08 09:23:20;;;;;;;9.03;5.93;;;;;;;12.13;66.08;101107.59;5042041;28;20387;-80
2021/11/08 09:25:45;;;;;;;9.88;6.45;;;;;;;12.02;65.78;101108.47;5035949;28;20549;-79
2021/11/08 09:28:11;;;;;;;13.80;6.85;;;;;;;10.86;69.12;101112.69;5047881;28;20493;-79
2021/11/08 09:30:42;;;;;;;10.40;6.50;;;;;;;11.03;70.37;101115.53;5044617;28;20474;-79
2021/11/08 09:33:09;;;;;;;11.57;6.80;;;;;;;11.68;67.61;101112.81;5046046;28;20869;-79
2021/11/08 09:35:43;;;;;;;9.27;6.05;;;;;;;11.77;67.55;101114.97;5053313;28;20856;-80
2021/11/08 09:38:10;;;;;;;14.80;7.88;;;;;;;11.80;66.98;101116.38;5048165;28;20395;-80
2021/11/08 09:40:38;;;;;;;17.33;8.67;;;;;;;11.88;67.94;101118.75;5049382;28;20401;-79
2021/11/08 09:43:10;;;;;;;12.53;6.93;;;;;;;12.90;65.10;101117.88;5039197;28;20409;-79
2021/11/08 09:45:35;;;;;;;13.00;5.90;;;;;;;13.33;63.75;101113.75;5041704;28;20412;-80
2021/11/08 09:48:02;;;;;;;10.05;5.88;;;;;;;13.05;64.38;101120.03;5051348;28;20409;-80
2021/11/08 09:50:30;;;;;;;15.57;5.57;;;;;;;13.65;62.67;101119.41;5042987;28;20867;-79
2021/11/08 09:52:59;;;;;;;10.82;5.90;;;;;;;15.02;58.99;101123.66;5048859;28;20896;-80
2021/11/08 09:55:25;;;;;;;12.13;6.03;;;;;;;15.60;56.61;101123.91;5050510;28;20401;-80
2021/11/08 09:57:53;;;;;;;15.52;5.93;;;;;;;15.15;57.52;101127.06;5047325;28;20943;-80
2021/11/08 10:00:36;;;;;;;8.95;5.22;;;;;;;16.00;56.41;101127.72;5035381;28;20430;-80
2021/11/08 10:03:13;;;;;;;23.67;7.32;;;;;;;16.34;53.94;101122.72;5049536;28;20638;-81
2021/11/08 10:05:42;;;;;;;15.55;8.23;;;;;;;15.98;53.81;101124.44;5051575;28;20413;-81
2021/11/08 10:08:10;;;;;;;12.88;5.88;;;;;;;16.05;53.88;101116.84;5053951;28;20753;-81
2021/11/08 10:10:36;;;;;;;14.35;6.38;;;;;;;16.67;51.42;101123.41;5053945;28;20470;-82
2021/11/08 10:13:12;;;;;;;16.48;6.85;;;;;;;16.77;50.70;101121.53;5050854;28;20398;-81
2021/11/08 10:15:42;;;;;;;14.63;6.25;;;;;;;15.28;54.29;101119.25;5043698;28;20406;-82
2021/11/08 10:18:08;;;;;;;15.82;6.03;;;;;;;13.53;59.15;101112.16;5040511;28;20411;-81
2021/11/08 10:20:45;;;;;;;17.15;6.15;;;;;;;12.43;62.87;101117.22;5034696;28;20407;-81
2021/11/08 10:23:12;;;;;;;19.15;6.30;;;;;;;11.80;65.90;101128.06;5048303;28;20404;-81
2021/11/08 10:25:41;;;;;;;16.88;6.95;;;;;;;11.40;67.40;101116.22;5044725;28;20403;-81
2021/11/08 10:28:08;;;;;;;18.50;6.75;;;;;;;11.09;68.31;101114.63;5047248;28;20397;-81
2021/11/08 10:30:36;;;;;;;17.10;6.85;;;;;;;10.82;69.60;101113.38;5035790;28;20406;-81
2021/11/08 10:33:12;;;;;;;18.13;6.40;;;;;;;10.62;70.39;101118.22;5046181;28;20614;-81
2021/11/08 10:35:54;;;;;;;19.67;7.45;;;;;;;10.29;71.33;101110.53;5043197;28;20491;-81
2021/11/08 10:38:22;;;;;;;19.73;7.65;;;;;;;10.16;72.40;101097.97;5050155;28;20875;-81
2021/11/08 10:40:52;;;;;;;15.52;7.20;;;;;;;10.15;72.78;101104.44;5047359;28;20447;-81
2021/11/08 10:43:27;;;;;;;21.98;7.35;;;;;;;10.12;72.70;101098.63;5035629;28;20878;-80
2021/11/08 10:45:56;;;;;;;20.25;7.80;;;;;;;10.11;73.06;101097.78;5049397;28;20425;-80
2021/11/08 10:48:24;;;;;;;14.55;6.55;;;;;;;10.07;73.16;101088.47;5051506;28;20401;-80
2021/11/08 10:50:52;;;;;;;18.83;6.60;;;;;;;9.93;73.18;101095.09;5038489;28;20392;-81
2021/11/08 10:53:19;;;;;;;17.63;6.75;;;;;;;9.96;74.02;101096.50;5044960;28;20440;-80
2021/11/08 10:55:48;;;;;;;17.23;6.18;;;;;;;9.99;74.05;101093.34;5039259;28;20419;-81
2021/11/08 10:58:19;;;;;;;16.65;6.53;;;;;;;10.03;73.99;101091.84;5051290;28;20510;-81
2021/11/08 11:00:51;;;;;;;23.13;6.75;;;;;;;10.02;73.67;101087.47;5051151;28;20405;-81
2021/11/08 11:03:19;;;;;;;20.07;5.13;;;;;;;9.88;72.71;101082.22;5052515;28;20539;-81
2021/11/08 11:05:45;;;;;;;21.98;6.75;;;;;;;9.78;73.16;101086.53;5036196;28;20538;-81
2021/11/08 11:08:14;;;;;;;22.42;7.50;;;;;;;9.74;73.33;101083.44;5052064;28;20813;-81
2021/11/08 11:10:49;;;;;;;19.87;5.57;;;;;;;9.77;72.68;101085.69;5042173;28;20405;-81
2021/11/08 11:13:25;;;;;;;14.63;4.22;;;;;;;9.84;71.56;101085.63;5049807;28;20425;-81
2021/11/08 11:16:00;;;;;;;22.70;7.03;;;;;;;9.86;72.22;101083.50;5049341;28;20414;-81
2021/11/08 11:18:31;;;;;;;20.55;5.45;;;;;;;9.80;71.84;101077.13;5037282;28;20399;-81
2021/11/08 11:20:57;;;;;;;16.63;5.82;;;;;;;9.80;72.54;101077.13;5052521;28;20404;-81
2021/11/08 11:23:29;;;;;;;19.50;4.50;;;;;;;9.79;71.01;101080.03;5037206;28;20403;-80
2021/11/08 11:26:03;;;;;;;24.98;5.90;;;;;;;9.78;71.14;101081.09;5049203;28;20415;-81
2021/11/08 11:28:35;;;;;;;20.92;5.10;;;;;;;9.79;71.56;101074.63;5041467;28;20385;-82
2021/11/08 11:31:19;;;;;;;26.77;6.15;;;;;;;9.76;72.16;101077.78;5043800;28;20407;-81
2021/11/08 11:33:46;;;;;;;21.45;4.80;;;;;;;9.73;73.13;101073.66;5034771;28;20425;-81
2021/11/08 11:36:17;;;;;;;15.73;4.72;;;;;;;9.66;73.43;101067.47;5038843;28;20382;-82
2021/11/08 11:38:56;;;;;;;18.95;4.57;;;;;;;9.63;73.23;101070.63;5049330;28;20440;-82
2021/11/08 11:41:29;;;;;;;20.70;5.18;;;;;;;9.62;72.26;101070.84;5048072;28;20883;-81
2021/11/08 11:44:38;;;;;;;19.48;5.50;;;;;;;9.60;71.44;101065.66;5049237;28;20937;-82
2021/11/08 11:47:13;;;;;;;18.25;4.72;;;;;;;9.67;72.46;101065.59;5048242;28;20418;-81
2021/11/08 11:49:45;;;;;;;17.80;4.57;;;;;;;9.66;72.46;101070.19;5049032;28;20478;-84
2021/11/08 11:52:11;;;;;;;16.15;4.80;;;;;;;9.70;72.13;101065.97;5048076;28;20389;-85
2021/11/08 11:54:47;;;;;;;20.88;4.85;;;;;;;9.75;73.44;101055.28;5045759;28;20953;-83
2021/11/08 11:57:13;;;;;;;17.67;4.47;;;;;;;9.78;73.41;101060.25;5041744;28;20462;-84
2021/11/08 11:59:40;;;;;;;20.40;4.93;;;;;;;9.79;73.22;101059.22;5043241;28;20411;-81
2021/11/08 12:02:22;;;;;;;20.38;5.90;;;;;;;9.91;72.81;101065.53;5042977;28;20422;-81
2021/11/08 12:04:47;;;;;;;14.00;3.83;;;;;;;10.07;71.70;101053.28;5039198;28;20427;-82
2021/11/08 12:07:14;;;;;;;14.80;4.33;;;;;;;10.21;70.65;101057.47;5037090;28;20427;-81
2021/11/08 12:09:43;;;;;;;14.75;4.43;;;;;;;10.30;70.57;101053.44;5037911;28;20452;-81
2021/11/08 12:12:13;;;;;;;16.17;4.63;;;;;;;10.33;70.57;101055.69;5042047;28;20439;-82
2021/11/08 12:14:38;;;;;;;16.17;4.07;;;;;;;10.25;70.61;101045.16;5029192;28;20442;-81
2021/11/08 12:17:12;;;;;;;12.50;3.90;;;;;;;10.17;69.93;101060.88;5040271;28;20851;-80
2021/11/08 12:20:11;;;;;;;14.85;3.92;;;;;;;10.11;70.30;101054.44;5041811;28;20461;-82
2021/11/08 12:22:41;;;;;;;51.50;7.35;;;;;;;10.18;70.02;101051.69;5030598;28;20409;-81
2021/11/08 12:25:16;;;;;;;16.70;4.30;;;;;;;10.32;69.31;101054.00;5042162;28;20389;-81
2021/11/08 12:27:49;;;;;;;17.77;4.57;;;;;;;10.48;68.71;101055.25;5041920;28;20946;-81
2021/11/08 12:30:28;;;;;;;19.58;4.45;;;;;;;10.68;68.60;101060.38;5039593;28;20484;-81
2021/11/08 12:33:20;;;;;;;14.90;3.53;;;;;;;10.93;66.60;101053.72;5041852;28;20829;-81
2021/11/08 12:35:45;;;;;;;17.17;4.47;;;;;;;11.25;66.73;101056.16;5040530;28;20551;-81
2021/11/08 12:38:21;;;;;;;15.80;4.03;;;;;;;11.43;66.37;101051.44;5041965;28;20402;-82
2021/11/08 12:40:47;;;;;;;15.53;4.67;;;;;;;11.45;65.48;101057.47;5040646;28;20496;-82
2021/11/08 12:43:24;;;;;;;17.98;4.78;;;;;;;11.34;66.48;101047.44;5047426;28;20405;-82
2021/11/08 12:45:55;;;;;;;18.77;5.23;;;;;;;11.20;67.04;101048.72;5047101;28;20401;-80
2021/11/08 12:48:20;;;;;;;17.70;5.05;;;;;;;11.09;68.19;101043.28;5047420;28;20444;-81
2021/11/08 12:50:54;;;;;;;17.03;5.93;;;;;;;11.00;69.04;101040.06;5047804;28;20456;-81
2021/11/08 12:53:26;;;;;;;14.80;5.32;;;;;;;10.91;69.66;101046.91;5039916;28;20920;-81
2021/11/08 12:55:53;;;;;;;15.95;5.20;;;;;;;10.69;69.50;101043.91;5046766;28;20426;-81
2021/11/08 12:58:19;;;;;;;14.88;5.00;;;;;;;10.49;70.06;101042.53;5041371;28;20411;-89
2021/11/08 13:00:50;;;;;;;15.33;5.73;;;;;;;10.31;70.51;101041.50;5036414;28;20409;-81